Time;durP1;ratioP1;P1;durP2;ratioP2;P2;SDS_P1;SDS_P2;PMS_P1;PMS_P2;Temp;Humidity;BMP_temperature;BMP_pressure;BME280_temperature;BME280_humidity;BME280_pressure;Samples;Min_cycle;Max_cycle;Signal;HPM_P1;HPM_P2
2021/08/06 00:01:12;;;;;;;4.97;4.57;;;;;;;18.88;67.85;100546.66;5975208;29;20331;-59
2021/08/06 00:04:35;;;;;;;4.28;3.97;;;;;;;18.93;67.68;100549.09;5975345;29;20314;-58
2021/08/06 00:07:56;;;;;;;5.35;4.63;;;;;;;18.92;67.48;100547.38;5983186;29;20247;-58
2021/08/06 00:11:17;;;;;;;5.10;4.70;;;;;;;18.65;69.02;100545.94;5980659;29;20236;-59
2021/08/06 00:14:39;;;;;;;4.50;4.20;;;;;;;18.54;69.02;100545.59;5985870;29;20247;-58
2021/08/06 00:18:00;;;;;;;5.30;4.85;;;;;;;18.48;69.39;100540.59;5980797;29;20255;-58
2021/08/06 00:21:21;;;;;;;5.97;5.40;;;;;;;18.40;69.40;100540.13;5982157;29;20228;-59
2021/08/06 00:24:42;;;;;;;5.72;5.20;;;;;;;18.33;69.98;100528.13;5975661;29;20506;-59
2021/08/06 00:28:03;;;;;;;5.13;4.63;;;;;;;18.29;70.09;100532.69;5983299;29;20252;-59
2021/08/06 00:31:26;;;;;;;5.45;4.95;;;;;;;18.35;70.07;100531.56;5979036;29;20240;-60
2021/08/06 00:34:47;;;;;;;6.15;5.55;;;;;;;18.48;69.27;100527.44;5980557;29;20235;-58
2021/08/06 00:38:08;;;;;;;5.10;4.53;;;;;;;18.59;68.73;100530.41;5985520;29;20239;-57
2021/08/06 00:41:32;;;;;;;6.13;5.63;;;;;;;18.68;68.17;100529.97;5994237;29;20318;-58
2021/08/06 00:44:55;;;;;;;5.10;4.68;;;;;;;18.50;68.89;100526.41;5990469;29;20260;-59
2021/08/06 00:48:20;;;;;;;5.15;4.32;;;;;;;18.39;69.26;100527.84;5982301;29;20239;-60
2021/08/06 00:51:41;;;;;;;5.63;5.22;;;;;;;18.66;68.09;100518.63;5991572;29;20240;-60
2021/08/06 00:55:03;;;;;;;4.50;4.18;;;;;;;18.33;69.13;100528.13;5984506;29;20247;-59
2021/08/06 00:58:29;;;;;;;5.93;5.45;;;;;;;18.54;68.48;100528.91;5982743;29;21176;-57
2021/08/06 01:01:59;;;;;;;5.30;4.90;;;;;;;18.39;69.16;100523.41;5977859;29;20717;-59
2021/08/06 01:05:30;;;;;;;5.63;5.13;;;;;;;18.59;68.45;100514.59;5975674;29;20263;-59
2021/08/06 01:08:59;;;;;;;5.43;4.93;;;;;;;18.58;68.17;100517.31;5981909;29;20622;-59
2021/08/06 01:12:27;;;;;;;5.93;5.43;;;;;;;18.73;67.60;100507.78;5978615;29;20263;-57
2021/08/06 01:15:52;;;;;;;6.43;5.40;;;;;;;18.60;67.80;100511.03;5980636;29;20231;-59
2021/08/06 01:19:24;;;;;;;5.97;5.43;;;;;;;18.59;67.90;100517.22;5977313;29;20271;-59
2021/08/06 01:22:53;;;;;;;7.65;6.95;;;;;;;18.72;67.16;100514.84;5988623;29;20623;-58
2021/08/06 01:26:28;;;;;;;5.00;4.63;;;;;;;18.42;68.00;100511.91;5976051;29;20323;-59
2021/08/06 01:29:52;;;;;;;5.78;5.10;;;;;;;18.14;69.08;100507.88;5983468;29;20275;-58
2021/08/06 01:33:16;;;;;;;6.53;6.03;;;;;;;18.32;68.21;100505.31;5978037;29;20240;-56
2021/08/06 01:36:37;;;;;;;6.25;5.75;;;;;;;18.39;68.29;100504.13;5984464;29;20235;-59
2021/08/06 01:40:02;;;;;;;6.05;5.55;;;;;;;18.38;68.15;100511.19;5986550;29;20259;-60
2021/08/06 01:43:30;;;;;;;6.10;5.68;;;;;;;18.54;67.43;100510.47;5983084;29;20243;-59
2021/08/06 01:46:56;;;;;;;7.30;5.22;;;;;;;18.01;69.05;100519.88;5983563;29;20239;-58
2021/08/06 01:50:23;;;;;;;6.57;6.03;;;;;;;18.05;69.38;100524.97;5978487;29;20243;-58
2021/08/06 01:53:48;;;;;;;6.57;5.97;;;;;;;17.78;70.53;100521.75;5988764;29;20235;-59
2021/08/06 01:57:12;;;;;;;5.50;5.00;;;;;;;17.73;70.64;100523.72;5971788;29;20674;-59
2021/08/06 02:00:36;;;;;;;6.50;5.90;;;;;;;17.92;70.09;100525.59;5990927;29;20310;-58
2021/08/06 02:04:01;;;;;;;10.75;6.38;;;;;;;18.18;68.93;100519.97;5979794;29;20244;-58
2021/08/06 02:07:27;;;;;;;6.28;5.75;;;;;;;18.42;68.34;100517.16;5965297;29;20235;-58
2021/08/06 02:10:50;;;;;;;6.45;5.85;;;;;;;18.47;68.17;100515.16;5982787;29;20239;-59
2021/08/06 02:14:17;;;;;;;7.13;6.63;;;;;;;18.47;67.80;100501.97;5987942;29;20228;-59
2021/08/06 02:17:44;;;;;;;4.97;4.65;;;;;;;18.56;67.37;100504.19;5981367;29;20239;-60
2021/08/06 02:21:26;;;;;;;5.93;5.43;;;;;;;18.67;66.85;100506.31;5975866;29;20224;-60
2021/08/06 02:24:47;;;;;;;5.93;5.43;;;;;;;18.57;67.09;100511.19;5972970;29;20614;-60
2021/08/06 02:28:13;;;;;;;8.60;5.40;;;;;;;18.45;67.61;100511.72;5990003;29;20227;-59
2021/08/06 02:31:38;;;;;;;5.23;4.83;;;;;;;18.44;67.66;100508.25;5985482;29;20236;-60
2021/08/06 02:35:01;;;;;;;5.73;5.33;;;;;;;18.31;68.02;100501.84;5996678;29;20256;-59
2021/08/06 02:38:22;;;;;;;7.20;6.68;;;;;;;17.94;69.65;100506.16;5991780;29;20240;-58
2021/08/06 02:41:44;;;;;;;6.38;5.88;;;;;;;17.85;70.23;100515.28;5982331;29;20236;-60
2021/08/06 02:45:06;;;;;;;6.20;5.63;;;;;;;17.36;71.91;100512.13;5981629;29;20236;-60
2021/08/06 02:48:27;;;;;;;6.22;5.30;;;;;;;17.31;73.09;100516.72;5980346;29;20550;-60
2021/08/06 02:51:49;;;;;;;8.73;6.30;;;;;;;17.58;71.79;100505.94;5983467;29;20239;-60
2021/08/06 02:55:11;;;;;;;6.57;6.00;;;;;;;17.60;71.90;100514.63;5985113;29;20239;-58
2021/08/06 02:58:32;;;;;;;5.13;4.63;;;;;;;17.76;71.05;100502.53;5984543;29;20263;-58
2021/08/06 03:01:53;;;;;;;6.90;6.22;;;;;;;17.83;71.26;100505.72;5992840;29;20247;-58
2021/08/06 03:05:15;;;;;;;7.95;6.95;;;;;;;18.10;70.34;100496.59;5977526;29;20252;-59
2021/08/06 03:08:38;;;;;;;7.22;6.53;;;;;;;17.95;70.57;100483.28;5983459;29;20240;-59
2021/08/06 03:12:01;;;;;;;6.72;6.10;;;;;;;18.02;70.19;100488.22;5993730;29;20240;-60
2021/08/06 03:15:29;;;;;;;6.85;6.35;;;;;;;18.15;69.63;100485.88;6001371;29;20333;-60
2021/08/06 03:18:49;;;;;;;6.83;6.13;;;;;;;17.61;71.81;100482.97;5975185;29;20232;-58
2021/08/06 03:22:12;;;;;;;7.67;7.00;;;;;;;17.79;71.13;100476.03;5979399;29;20241;-59
2021/08/06 03:25:35;;;;;;;6.60;6.00;;;;;;;17.92;70.65;100475.53;5985211;29;20236;-59
2021/08/06 03:28:57;;;;;;;7.32;6.72;;;;;;;17.91;70.73;100479.94;5973360;29;20704;-59
2021/08/06 03:32:20;;;;;;;6.75;6.25;;;;;;;17.87;70.98;100473.09;5984574;29;20243;-59
2021/08/06 03:35:41;;;;;;;7.38;6.78;;;;;;;17.62;71.64;100465.38;5983825;29;20514;-59
2021/08/06 03:39:02;;;;;;;7.05;6.22;;;;;;;17.77;71.08;100477.03;5971557;29;20244;-58
2021/08/06 03:42:26;;;;;;;7.90;7.10;;;;;;;17.80;70.95;100456.69;5985606;29;20252;-56
2021/08/06 03:45:47;;;;;;;7.43;6.82;;;;;;;17.61;71.82;100468.97;5978016;29;20534;-59
2021/08/06 03:49:10;;;;;;;7.10;6.60;;;;;;;17.63;71.23;100461.84;5975164;29;20248;-58
2021/08/06 03:52:31;;;;;;;8.13;7.53;;;;;;;17.39;72.46;100467.25;5983209;29;20236;-59
2021/08/06 03:55:53;;;;;;;6.30;5.83;;;;;;;17.82;71.19;100459.25;5975506;29;20305;-59
2021/08/06 03:59:19;;;;;;;7.00;6.40;;;;;;;17.80;71.05;100455.84;5981269;29;20236;-58
2021/08/06 04:02:42;;;;;;;6.13;5.73;;;;;;;17.82;71.09;100462.75;5980865;29;20232;-59
2021/08/06 04:06:03;;;;;;;7.83;7.13;;;;;;;17.51;72.05;100455.34;5983439;29;20247;-60
2021/08/06 04:09:24;;;;;;;8.30;7.70;;;;;;;17.87;71.17;100450.25;5981594;29;20575;-60
2021/08/06 04:12:46;;;;;;;7.87;7.10;;;;;;;17.73;71.03;100455.25;5976104;29;20239;-60
2021/08/06 04:16:08;;;;;;;7.37;6.83;;;;;;;17.65;71.38;100452.09;5980782;29;20236;-59
2021/08/06 04:19:30;;;;;;;7.93;7.10;;;;;;;17.70;70.78;100455.41;5984266;29;20243;-58
2021/08/06 04:22:51;;;;;;;7.97;7.23;;;;;;;17.27;72.83;100451.97;5970839;29;20236;-59
2021/08/06 04:26:12;;;;;;;6.27;5.77;;;;;;;17.43;71.67;100453.03;5982164;29;20240;-59
2021/08/06 04:29:34;;;;;;;9.53;8.70;;;;;;;17.55;71.55;100446.38;5979212;29;20240;-59
2021/08/06 04:32:56;;;;;;;8.57;7.97;;;;;;;17.73;70.80;100436.81;5980892;29;20291;-59
2021/08/06 04:36:17;;;;;;;9.13;8.37;;;;;;;17.87;70.00;100437.09;5990259;29;20228;-59
2021/08/06 04:39:38;;;;;;;8.60;7.97;;;;;;;18.21;68.69;100432.88;5983543;29;20239;-60
2021/08/06 04:42:59;;;;;;;8.57;7.90;;;;;;;17.87;69.29;100436.22;5977307;29;20276;-58
2021/08/06 04:46:21;;;;;;;8.43;7.83;;;;;;;17.79;70.07;100433.03;5981195;29;20224;-58
2021/08/06 04:49:43;;;;;;;8.63;8.03;;;;;;;18.06;69.07;100431.81;5976159;29;20243;-58
2021/08/06 04:53:05;;;;;;;9.15;8.45;;;;;;;18.42;68.00;100433.66;5977173;29;20248;-58
2021/08/06 04:56:28;;;;;;;9.47;8.77;;;;;;;17.87;69.29;100433.56;5987821;29;20267;-59
2021/08/06 04:59:49;;;;;;;8.60;7.90;;;;;;;18.16;68.58;100431.38;5981031;29;20295;-60
2021/08/06 05:03:10;;;;;;;9.73;8.97;;;;;;;17.56;70.88;100420.91;5978337;29;20567;-58
2021/08/06 05:06:42;;;;;;;10.33;9.53;;;;;;;18.01;69.34;100422.41;5976915;29;20231;-58
2021/08/06 05:10:04;;;;;;;10.83;9.93;;;;;;;18.00;69.30;100421.56;5978518;29;20658;-58
2021/08/06 05:13:26;;;;;;;10.20;9.32;;;;;;;17.85;69.65;100419.63;5984779;29;20505;-59
2021/08/06 05:16:46;;;;;;;11.00;10.10;;;;;;;18.11;68.92;100413.16;5997479;29;20336;-60
2021/08/06 05:20:08;;;;;;;10.77;9.88;;;;;;;18.10;69.05;100414.06;5986038;29;20554;-60
2021/08/06 05:23:31;;;;;;;11.75;10.85;;;;;;;18.08;69.06;100421.19;5983308;29;20795;-59
2021/08/06 05:26:52;;;;;;;11.65;10.65;;;;;;;18.06;68.59;100420.41;5986445;29;20240;-59
2021/08/06 05:30:14;;;;;;;14.95;13.77;;;;;;;18.09;68.96;100417.66;5968195;29;20244;-59
2021/08/06 05:33:38;;;;;;;9.60;8.80;;;;;;;18.09;68.82;100422.94;5982011;29;20603;-59
2021/08/06 05:36:59;;;;;;;9.43;8.32;;;;;;;17.89;68.98;100408.03;5985037;29;20311;-59
2021/08/06 05:40:21;;;;;;;10.02;8.27;;;;;;;18.05;68.46;100402.91;5976225;29;20459;-60
2021/08/06 05:43:43;;;;;;;7.45;6.85;;;;;;;18.16;67.93;100389.22;5978473;29;20518;-59
2021/08/06 05:47:05;;;;;;;7.88;7.18;;;;;;;18.10;67.50;100401.75;5970335;29;20235;-59
2021/08/06 05:50:29;;;;;;;7.15;6.50;;;;;;;18.48;66.41;100396.44;5982744;29;20228;-57
2021/08/06 05:53:50;;;;;;;6.45;5.95;;;;;;;18.48;66.22;100387.69;5979857;29;20239;-60
2021/08/06 05:57:12;;;;;;;5.93;5.43;;;;;;;18.44;66.34;100392.25;5979150;29;20240;-60
2021/08/06 06:00:35;;;;;;;6.95;6.35;;;;;;;18.52;66.29;100391.88;5986651;29;20567;-59
2021/08/06 06:04:16;;;;;;;7.55;6.35;;;;;;;18.65;65.19;100397.38;5981275;29;20244;-59
2021/08/06 06:07:51;;;;;;;5.95;5.55;;;;;;;18.52;66.18;100405.06;5978041;29;20239;-58
2021/08/06 06:11:11;;;;;;;6.23;5.73;;;;;;;18.17;66.87;100401.50;5986001;29;20240;-59
2021/08/06 06:14:34;;;;;;;5.43;5.03;;;;;;;18.34;66.78;100400.66;5991585;29;20607;-57
2021/08/06 06:17:55;;;;;;;6.35;5.85;;;;;;;18.30;65.46;100392.06;5997749;29;20239;-59
2021/08/06 06:21:16;;;;;;;6.55;5.70;;;;;;;18.10;66.80;100393.84;5990794;29;20240;-59
2021/08/06 06:24:37;;;;;;;5.55;5.15;;;;;;;18.45;65.81;100406.28;5982526;29;20236;-59
2021/08/06 06:28:00;;;;;;;7.07;6.45;;;;;;;18.00;67.19;100403.13;5978638;29;20322;-59
2021/08/06 06:31:28;;;;;;;6.97;5.05;;;;;;;18.87;64.33;100397.22;5997051;29;20243;-60
2021/08/06 06:34:50;;;;;;;4.85;4.47;;;;;;;18.64;64.64;100385.16;5985951;29;20251;-59
2021/08/06 06:38:11;;;;;;;5.55;5.15;;;;;;;19.00;63.64;100392.16;5990433;29;20330;-59
2021/08/06 06:41:33;;;;;;;4.93;4.60;;;;;;;18.72;64.10;100397.94;5978388;29;20244;-58
2021/08/06 06:45:15;;;;;;;4.65;4.28;;;;;;;18.45;65.07;100390.47;5975857;29;20256;-59
2021/08/06 06:48:38;;;;;;;4.53;4.13;;;;;;;18.90;63.73;100389.13;5983895;29;20248;-58
2021/08/06 06:51:59;;;;;;;4.57;4.18;;;;;;;19.52;61.85;100385.97;5988129;29;20239;-59
2021/08/06 06:55:20;;;;;;;4.28;3.97;;;;;;;18.83;64.02;100387.75;5983216;29;20552;-59
2021/08/06 06:58:42;;;;;;;4.82;4.40;;;;;;;18.72;63.96;100384.75;5978225;29;20244;-59
2021/08/06 07:02:03;;;;;;;4.05;3.83;;;;;;;19.03;63.60;100386.75;5978403;29;20243;-59
2021/08/06 07:05:25;;;;;;;4.03;3.72;;;;;;;19.43;62.44;100379.41;5973906;29;20247;-59
2021/08/06 07:08:48;;;;;;;3.65;3.35;;;;;;;19.61;61.57;100375.75;5983461;29;20263;-59
2021/08/06 07:12:09;;;;;;;3.90;3.60;;;;;;;19.78;61.33;100385.47;5984132;29;20235;-59
2021/08/06 07:15:31;;;;;;;5.00;4.03;;;;;;;19.58;60.94;100383.00;5983432;29;20301;-58
2021/08/06 07:18:52;;;;;;;4.55;4.15;;;;;;;19.72;60.96;100387.59;5990157;29;20232;-59
2021/08/06 07:22:14;;;;;;;5.18;4.80;;;;;;;20.06;60.56;100394.50;5978296;29;20632;-59
2021/08/06 07:25:36;;;;;;;5.00;4.70;;;;;;;19.79;60.27;100388.94;5979797;29;20248;-58
2021/08/06 07:29:01;;;;;;;5.78;4.70;;;;;;;19.95;60.01;100386.31;5981854;29;20231;-58
2021/08/06 07:32:22;;;;;;;4.10;3.80;;;;;;;20.00;59.86;100381.63;5998628;29;20260;-59
2021/08/06 07:35:43;;;;;;;4.88;4.47;;;;;;;20.41;59.05;100374.03;5988577;29;20325;-59
2021/08/06 07:39:06;;;;;;;4.50;4.07;;;;;;;20.33;59.21;100376.25;5981237;29;20323;-59
2021/08/06 07:42:28;;;;;;;4.05;3.70;;;;;;;20.26;59.30;100378.41;5980491;29;20239;-59
2021/08/06 07:45:50;;;;;;;4.88;4.47;;;;;;;20.37;59.30;100374.28;5981628;29;20242;-59
2021/08/06 07:49:12;;;;;;;4.35;4.05;;;;;;;20.60;58.54;100373.84;5981313;29;20516;-59
2021/08/06 07:52:33;;;;;;;5.03;4.60;;;;;;;20.77;57.91;100375.50;5982562;29;20326;-59
2021/08/06 07:55:55;;;;;;;3.67;3.38;;;;;;;20.45;58.63;100403.78;5982201;29;20240;-59
2021/08/06 07:59:19;;;;;;;4.10;3.67;;;;;;;20.19;59.47;100374.38;5987282;29;20240;-60
2021/08/06 08:02:40;;;;;;;5.68;4.30;;;;;;;20.60;58.33;100376.47;5994671;29;20235;-59
2021/08/06 08:06:01;;;;;;;4.45;3.95;;;;;;;21.04;57.37;100374.81;5986612;29;20247;-59
2021/08/06 08:09:22;;;;;;;4.38;4.07;;;;;;;20.94;58.02;100376.31;5982444;29;20240;-59
2021/08/06 08:12:45;;;;;;;3.58;3.30;;;;;;;21.22;56.92;100375.50;5980681;29;20263;-58
2021/08/06 08:16:06;;;;;;;5.13;4.18;;;;;;;21.08;57.48;100378.16;5986958;29;20512;-58
2021/08/06 08:19:27;;;;;;;4.30;4.00;;;;;;;21.14;57.51;100367.19;5984142;29;20249;-60
2021/08/06 08:22:49;;;;;;;4.88;4.15;;;;;;;21.07;57.85;100355.25;5974555;29;20244;-58
2021/08/06 08:26:09;;;;;;;3.92;3.60;;;;;;;21.53;56.81;100363.91;5986756;29;20241;-59
2021/08/06 08:29:31;;;;;;;4.25;3.85;;;;;;;21.48;57.11;100367.78;5979569;29;20267;-58
2021/08/06 08:32:53;;;;;;;4.10;3.80;;;;;;;21.54;56.87;100354.16;5983089;29;20247;-59
2021/08/06 08:36:16;;;;;;;4.03;3.63;;;;;;;21.23;57.73;100342.81;5971721;29;20239;-59
2021/08/06 08:39:38;;;;;;;4.35;4.05;;;;;;;22.10;56.20;100352.41;5977788;29;20513;-59
2021/08/06 08:42:59;;;;;;;3.75;3.55;;;;;;;22.28;54.67;100338.91;5980084;29;20310;-58
2021/08/06 08:46:26;;;;;;;4.30;3.78;;;;;;;21.95;54.93;100342.78;5984753;29;20231;-59
2021/08/06 08:49:50;;;;;;;3.67;3.38;;;;;;;21.40;56.17;100347.03;5980567;29;20236;-60
2021/08/06 08:53:12;;;;;;;3.95;3.33;;;;;;;21.45;54.48;100355.59;5984316;29;20259;-58
2021/08/06 08:56:33;;;;;;;3.33;3.13;;;;;;;22.16;52.54;100344.03;5983711;29;20231;-58
2021/08/06 08:59:55;;;;;;;3.88;3.58;;;;;;;22.67;52.02;100329.25;5979688;29;20247;-57
2021/08/06 09:03:39;;;;;;;3.40;3.20;;;;;;;22.38;52.53;100313.47;5983707;29;20232;-58
2021/08/06 09:07:04;;;;;;;3.45;3.15;;;;;;;22.83;51.79;100335.22;5979018;29;20264;-57
2021/08/06 09:10:30;;;;;;;3.00;2.80;;;;;;;22.39;51.97;100331.06;5978742;29;20236;-59
2021/08/06 09:14:20;;;;;;;2.47;2.38;;;;;;;22.36;51.23;100331.31;5979531;29;20239;-58
2021/08/06 09:17:41;;;;;;;2.88;2.67;;;;;;;22.98;49.41;100323.53;5980095;29;20622;-59
2021/08/06 09:21:06;;;;;;;2.78;2.63;;;;;;;23.08;49.09;100323.78;5973873;29;20575;-57
2021/08/06 09:24:27;;;;;;;3.58;3.28;;;;;;;23.45;48.89;100320.38;5987037;29;20235;-59
2021/08/06 09:27:50;;;;;;;2.60;2.40;;;;;;;23.67;48.08;100319.69;5977610;29;20244;-57
2021/08/06 09:31:16;;;;;;;3.10;2.80;;;;;;;23.25;47.75;100313.81;5968095;29;20626;-59
2021/08/06 09:34:37;;;;;;;3.53;2.97;;;;;;;22.87;48.35;100312.81;5965328;29;20235;-58
2021/08/06 09:38:01;;;;;;;2.97;2.78;;;;;;;23.39;47.52;100321.66;5973427;29;20243;-58
2021/08/06 09:41:40;;;;;;;4.25;3.95;;;;;;;23.59;47.89;100317.56;5977153;29;20231;-59
2021/08/06 09:45:04;;;;;;;2.95;2.75;;;;;;;23.37;47.74;100327.06;5968783;29;20394;-58
2021/08/06 09:48:26;;;;;;;3.42;3.13;;;;;;;22.95;48.87;100317.59;5988532;29;20245;-58
2021/08/06 09:51:50;;;;;;;2.58;2.47;;;;;;;23.22;47.84;100322.81;5984429;29;20614;-58
2021/08/06 09:55:21;;;;;;;2.65;2.50;;;;;;;23.63;47.21;100319.03;5984354;29;20256;-58
2021/08/06 09:58:58;;;;;;;2.65;2.45;;;;;;;24.26;46.99;100300.34;5983630;29;20263;-59
2021/08/06 10:02:22;;;;;;;3.20;2.90;;;;;;;23.97;46.93;100303.34;5978969;29;20235;-59
2021/08/06 10:05:43;;;;;;;3.03;2.75;;;;;;;23.74;47.27;100300.53;5982844;29;20654;-60
2021/08/06 10:09:04;;;;;;;3.20;3.00;;;;;;;24.45;46.24;100290.03;5980845;29;20275;-58
2021/08/06 10:12:28;;;;;;;3.05;2.85;;;;;;;23.72;46.59;100291.81;5985710;29;20239;-58
2021/08/06 10:15:49;;;;;;;6.63;6.13;;;;;;;24.65;46.61;100279.69;5986361;29;20231;-59
2021/08/06 10:19:10;;;;;;;3.00;2.80;;;;;;;24.55;46.06;100296.38;5977435;29;20237;-57
2021/08/06 10:22:30;;;;;;;3.45;3.25;;;;;;;24.06;46.25;100276.09;5982555;29;20626;-58
2021/08/06 10:25:52;;;;;;;3.58;3.35;;;;;;;24.10;46.62;100282.03;5980492;29;20359;-58
2021/08/06 10:29:19;;;;;;;3.30;2.83;;;;;;;24.13;46.55;100263.16;5983237;29;20599;-58
2021/08/06 10:32:40;;;;;;;3.60;3.30;;;;;;;24.83;46.17;100272.94;5978807;29;20258;-58
2021/08/06 10:36:04;;;;;;;3.42;3.08;;;;;;;24.36;45.51;100264.09;5983532;29;20236;-59
2021/08/06 10:39:43;;;;;;;3.60;3.28;;;;;;;24.36;46.46;100269.41;5981885;29;20244;-57
2021/08/06 10:43:35;;;;;;;3.58;3.30;;;;;;;24.58;45.57;100273.13;5977233;29;20244;-58
2021/08/06 10:47:02;;;;;;;2.95;2.75;;;;;;;25.06;44.89;100270.31;5976411;29;20232;-58
2021/08/06 10:50:23;;;;;;;3.10;2.90;;;;;;;25.09;44.42;100262.09;5980198;29;20231;-59
2021/08/06 10:53:45;;;;;;;3.58;3.38;;;;;;;25.32;43.78;100265.63;5982021;29;20626;-59
2021/08/06 10:57:40;;;;;;;3.70;3.40;;;;;;;25.91;42.47;100259.09;5983488;29;20239;-60
2021/08/06 11:01:38;;;;;;;4.07;3.78;;;;;;;25.59;42.38;100259.91;5977046;29;20238;-58
2021/08/06 11:05:01;;;;;;;3.92;3.63;;;;;;;26.41;42.08;100261.22;5970558;29;20274;-59
2021/08/06 11:08:55;;;;;;;3.95;3.65;;;;;;;25.54;43.06;100248.75;5977025;29;20279;-60
2021/08/06 11:12:31;;;;;;;4.63;4.22;;;;;;;26.06;42.01;100254.34;5979623;29;20317;-58
2021/08/06 11:16:06;;;;;;;4.53;4.13;;;;;;;25.71;42.95;100248.22;5982342;29;20330;-59
2021/08/06 11:19:28;;;;;;;3.75;3.45;;;;;;;25.76;42.61;100249.66;5980160;29;20682;-59
2021/08/06 11:22:51;;;;;;;4.25;3.65;;;;;;;26.09;42.33;100238.91;5964528;29;20233;-59
2021/08/06 11:26:13;;;;;;;4.03;3.83;;;;;;;25.45;42.88;100241.50;5983095;29;20248;-61
2021/08/06 11:29:34;;;;;;;5.13;4.65;;;;;;;25.20;43.94;100246.06;5985752;29;20613;-59
2021/08/06 11:32:58;;;;;;;4.95;4.65;;;;;;;26.21;42.04;100225.50;5982349;29;20275;-60
2021/08/06 11:36:18;;;;;;;4.70;4.40;;;;;;;26.24;42.36;100227.94;5979018;29;20614;-59
2021/08/06 11:39:41;;;;;;;5.28;4.88;;;;;;;25.51;43.49;100219.66;5976874;29;20274;-60
2021/08/06 11:43:10;;;;;;;5.50;5.07;;;;;;;25.45;43.14;100220.16;5983125;29;20247;-60
2021/08/06 11:46:31;;;;;;;5.43;5.03;;;;;;;25.21;44.62;100217.66;5984309;29;20239;-58
2021/08/06 11:49:52;;;;;;;5.43;4.93;;;;;;;26.65;42.24;100207.56;5973985;29;20247;-60
2021/08/06 11:53:15;;;;;;;5.13;4.72;;;;;;;25.78;42.94;100213.06;5982180;29;20502;-59
2021/08/06 11:56:38;;;;;;;5.70;5.30;;;;;;;26.02;41.33;100208.38;5969457;29;20236;-59
2021/08/06 12:00:15;;;;;;;5.03;4.63;;;;;;;26.42;41.50;100204.16;5980428;29;20261;-59
2021/08/06 12:03:43;;;;;;;4.82;4.53;;;;;;;27.32;39.51;100197.28;5979729;29;20259;-58
2021/08/06 12:07:04;;;;;;;4.93;4.53;;;;;;;27.61;39.33;100205.38;5977627;29;20239;-58
2021/08/06 12:10:26;;;;;;;5.15;4.75;;;;;;;26.77;40.13;100187.78;5980696;29;20607;-59
2021/08/06 12:13:50;;;;;;;4.60;4.30;;;;;;;26.61;40.30;100182.09;5981022;29;20244;-59
2021/08/06 12:17:19;;;;;;;4.50;4.20;;;;;;;26.57;40.41;100180.66;5979662;29;20658;-59
2021/08/06 12:20:42;;;;;;;4.63;4.32;;;;;;;26.36;40.31;100178.84;5973135;29;20236;-59
2021/08/06 12:24:07;;;;;;;5.30;4.25;;;;;;;26.63;39.89;100174.81;5967729;29;20240;-59
2021/08/06 12:27:29;;;;;;;5.65;3.80;;;;;;;26.47;40.07;100170.75;5983377;29;20240;-60
2021/08/06 12:30:51;;;;;;;4.88;4.55;;;;;;;26.05;41.01;100164.59;5976814;29;20252;-59
2021/08/06 12:34:14;;;;;;;4.80;4.47;;;;;;;25.51;42.07;100159.22;5985675;29;20263;-59
2021/08/06 12:37:37;;;;;;;4.32;4.00;;;;;;;25.44;42.76;100154.53;5983940;29;20232;-58
2021/08/06 12:41:00;;;;;;;4.57;4.28;;;;;;;25.16;43.21;100162.03;5976760;29;20247;-58
2021/08/06 12:44:29;;;;;;;4.82;4.43;;;;;;;25.14;43.85;100164.84;5980662;29;20281;-59
2021/08/06 12:47:52;;;;;;;5.13;4.63;;;;;;;24.66;45.09;100159.78;5976505;29;20231;-59
2021/08/06 12:51:17;;;;;;;6.13;4.35;;;;;;;25.20;44.45;100149.31;5982058;29;20244;-59
2021/08/06 12:54:47;;;;;;;4.63;4.32;;;;;;;24.96;44.71;100151.19;5980271;29;20263;-59
2021/08/06 12:58:20;;;;;;;5.40;4.63;;;;;;;25.16;43.78;100146.06;5974761;29;20346;-59
2021/08/06 13:01:41;;;;;;;5.20;4.80;;;;;;;26.73;41.33;100143.63;5989208;29;20243;-59
2021/08/06 13:05:07;;;;;;;4.95;4.57;;;;;;;26.84;40.51;100138.19;5985560;29;20334;-59
2021/08/06 13:08:30;;;;;;;4.35;4.05;;;;;;;31.16;32.67;100130.31;5983860;29;20602;-60
2021/08/06 13:12:06;;;;;;;4.30;4.00;;;;;;;32.11;31.06;100126.41;5980588;29;20239;-59
2021/08/06 13:15:27;;;;;;;4.45;4.15;;;;;;;33.42;28.82;100123.16;5962571;29;20235;-60
2021/08/06 13:18:48;;;;;;;4.88;4.22;;;;;;;31.87;30.82;100111.06;5981689;29;20251;-59
2021/08/06 13:22:13;;;;;;;4.75;4.35;;;;;;;26.83;40.16;100125.84;5973939;29;20239;-59
2021/08/06 13:25:33;;;;;;;4.85;4.45;;;;;;;26.49;41.26;100139.44;5979546;29;20244;-60
2021/08/06 13:28:54;;;;;;;5.40;4.93;;;;;;;25.53;42.45;100132.41;5979815;29;20598;-60
2021/08/06 13:32:15;;;;;;;4.57;4.25;;;;;;;24.91;44.02;100136.53;5975824;29;20240;-59
2021/08/06 13:35:36;;;;;;;5.20;4.80;;;;;;;25.06;43.93;100140.63;5980113;29;20394;-60
2021/08/06 13:38:58;;;;;;;5.70;5.30;;;;;;;25.03;44.47;100132.03;5972660;29;20267;-60
2021/08/06 13:42:19;;;;;;;5.50;4.75;;;;;;;24.85;46.36;100135.19;5980100;29;20239;-59
2021/08/06 13:45:40;;;;;;;5.13;4.72;;;;;;;24.55;47.72;100131.34;5984098;29;20722;-60
2021/08/06 13:49:01;;;;;;;6.68;5.78;;;;;;;24.39;49.49;100141.47;5980845;29;20649;-59
2021/08/06 13:52:22;;;;;;;8.38;5.95;;;;;;;23.98;52.39;100148.13;5975451;29;20797;-59
2021/08/06 13:55:44;;;;;;;7.82;7.13;;;;;;;23.44;56.81;100164.56;5977014;29;20239;-59
2021/08/06 13:59:05;;;;;;;7.35;6.50;;;;;;;23.58;57.49;100167.06;5983031;29;20235;-59
2021/08/06 14:02:26;;;;;;;10.27;7.65;;;;;;;23.57;57.71;100154.72;5983375;29;20255;-60
2021/08/06 14:05:47;;;;;;;14.82;13.27;;;;;;;23.53;60.11;100148.78;5982085;29;20263;-59
2021/08/06 14:09:08;;;;;;;11.20;8.27;;;;;;;23.39;60.29;100162.25;5981720;29;20224;-59
2021/08/06 14:12:30;;;;;;;7.85;7.15;;;;;;;22.55;61.21;100153.16;5979033;29;20235;-59
2021/08/06 14:15:50;;;;;;;8.15;6.65;;;;;;;22.46;61.93;100122.81;5985703;29;20307;-61
2021/08/06 14:19:12;;;;;;;8.05;7.35;;;;;;;22.66;61.15;100120.56;5975241;29;20231;-59
2021/08/06 14:22:33;;;;;;;9.32;8.55;;;;;;;22.67;60.50;100119.59;5973807;29;20240;-59
2021/08/06 14:25:54;;;;;;;9.98;8.95;;;;;;;22.44;61.99;100137.13;5979338;29;20232;-59
2021/08/06 14:29:18;;;;;;;10.20;9.30;;;;;;;21.06;68.71;100147.94;5983130;29;20240;-59
2021/08/06 14:32:39;;;;;;;8.77;7.93;;;;;;;21.88;63.82;100150.63;5981605;29;20949;-60
2021/08/06 14:35:59;;;;;;;11.85;9.10;;;;;;;21.78;64.72;100151.22;5979717;29;20611;-59
2021/08/06 14:39:21;;;;;;;10.15;8.48;;;;;;;22.33;63.93;100151.13;5976334;29;20402;-59
2021/08/06 14:42:42;;;;;;;9.73;8.55;;;;;;;22.67;63.18;100164.72;5982927;29;20255;-60
2021/08/06 14:46:05;;;;;;;8.95;8.05;;;;;;;22.44;61.63;100168.97;5983210;29;20243;-59
2021/08/06 14:49:26;;;;;;;6.38;5.95;;;;;;;22.46;62.85;100207.69;5983583;29;20577;-60
2021/08/06 14:52:47;;;;;;;5.68;4.25;;;;;;;22.23;62.37;100207.41;5982998;29;20244;-60
2021/08/06 14:56:08;;;;;;;4.88;4.05;;;;;;;22.32;63.37;100213.09;5980200;29;20232;-59
2021/08/06 14:59:29;;;;;;;4.40;3.97;;;;;;;22.27;63.78;100223.16;5979972;29;20232;-59
2021/08/06 15:02:51;;;;;;;4.53;4.20;;;;;;;22.35;63.82;100234.09;5983567;29;20236;-60
2021/08/06 15:06:13;;;;;;;5.43;4.93;;;;;;;21.83;66.44;100246.34;5981130;29;20244;-60
2021/08/06 15:09:34;;;;;;;6.60;3.97;;;;;;;21.96;65.17;100254.31;5979402;29;20240;-60
2021/08/06 15:12:55;;;;;;;3.72;3.42;;;;;;;21.92;65.28;100266.09;5975925;29;20236;-59
2021/08/06 15:16:16;;;;;;;4.60;4.20;;;;;;;22.01;65.38;100268.97;5975870;29;20271;-59
2021/08/06 15:19:39;;;;;;;6.07;4.80;;;;;;;22.10;65.36;100266.66;5989643;29;20235;-59
2021/08/06 15:22:59;;;;;;;5.32;4.93;;;;;;;21.95;65.96;100263.25;5981442;29;20244;-60
2021/08/06 15:26:21;;;;;;;5.75;5.22;;;;;;;22.03;65.77;100266.25;5980567;29;20232;-59
2021/08/06 15:29:42;;;;;;;4.03;3.72;;;;;;;22.17;65.21;100270.63;5981765;29;20243;-59
2021/08/06 15:33:03;;;;;;;4.18;3.80;;;;;;;22.13;65.07;100285.88;5983556;29;20513;-60
2021/08/06 15:36:28;;;;;;;4.53;3.58;;;;;;;21.92;66.70;100295.25;5983052;29;20235;-59
2021/08/06 15:39:49;;;;;;;3.97;3.67;;;;;;;22.21;65.66;100288.03;5972435;29;20228;-60
2021/08/06 15:43:10;;;;;;;4.53;3.72;;;;;;;22.18;65.91;100281.13;5977234;29;20268;-59
2021/08/06 15:46:31;;;;;;;5.18;4.65;;;;;;;22.02;67.80;100280.44;5983024;29;20892;-60